createdAt,value
2019-05-11T00:01:15.973Z,4.47
2019-05-11T00:06:49.594Z,4.37
2019-05-11T00:09:58.751Z,4.30
2019-05-11T00:12:30.089Z,4.03
2019-05-11T00:14:59.486Z,4.17
2019-05-11T00:17:28.955Z,3.80
2019-05-11T00:20:02.273Z,3.67
2019-05-11T00:22:32.509Z,3.10
2019-05-11T00:25:02.326Z,3.13
2019-05-11T00:28:11.119Z,2.83
2019-05-11T00:33:55.644Z,2.90
2019-05-11T00:36:25.140Z,2.70
2019-05-11T00:38:54.554Z,2.90
2019-05-11T00:41:24.518Z,3.10
2019-05-11T00:43:53.869Z,2.90
2019-05-11T00:46:23.276Z,3.03
2019-05-11T00:51:27.796Z,2.60
2019-05-11T00:53:58.021Z,3.10
2019-05-11T00:57:06.753Z,3.17
2019-05-11T01:02:31.923Z,2.93
2019-05-11T01:05:01.441Z,2.90
2019-05-11T01:13:21.414Z,2.67
2019-05-11T01:16:30.944Z,2.77
2019-05-11T01:19:00.563Z,2.47
2019-05-11T01:21:30.125Z,2.73
2019-05-11T01:23:59.645Z,2.80
2019-05-11T01:26:48.705Z,2.83
2019-05-11T01:29:18.216Z,3.07
2019-05-11T01:31:48.069Z,2.97
2019-05-11T01:34:17.638Z,3.40
2019-05-11T01:36:47.081Z,2.80
2019-05-11T01:39:16.700Z,2.90
2019-05-11T01:42:28.095Z,2.90
2019-05-11T01:45:17.557Z,3.50
2019-05-11T01:50:42.677Z,2.90
2019-05-11T01:58:56.868Z,2.33
2019-05-11T02:01:26.845Z,2.23
2019-05-11T02:03:56.397Z,2.13
2019-05-11T02:06:25.891Z,2.20
2019-05-11T02:11:51.846Z,2.20
2019-05-11T02:20:26.287Z,2.43
2019-05-11T02:25:58.918Z,2.30
2019-05-11T02:28:28.319Z,2.10
2019-05-11T02:30:57.827Z,2.43
2019-05-11T02:33:27.956Z,1.90
2019-05-11T02:35:57.454Z,1.80
2019-05-11T02:38:27.376Z,2.03
2019-05-11T02:40:56.958Z,1.90
2019-05-11T02:43:28.031Z,1.80
2019-05-11T02:46:36.930Z,1.60
2019-05-11T02:52:24.406Z,1.57
2019-05-11T02:55:33.756Z,1.70
2019-05-11T03:00:59.385Z,1.50
2019-05-11T03:06:23.383Z,1.80
2019-05-11T03:08:53.188Z,1.63
2019-05-11T03:14:11.766Z,1.80
2019-05-11T03:16:41.780Z,1.90
2019-05-11T03:19:11.192Z,1.93
2019-05-11T03:21:41.314Z,2.20
2019-05-11T03:24:11.739Z,1.87
2019-05-11T03:26:41.761Z,1.90
2019-05-11T03:29:11.282Z,1.77
2019-05-11T03:32:20.485Z,2.23
2019-05-11T03:38:17.726Z,2.00
2019-05-11T03:43:42.353Z,2.20
2019-05-11T03:46:52.318Z,2.30
2019-05-11T03:49:22.726Z,2.30
2019-05-11T03:51:53.611Z,1.80
2019-05-11T03:54:23.240Z,2.13
2019-05-11T03:56:52.849Z,1.90
2019-05-11T03:59:22.398Z,1.90
2019-05-11T04:01:51.880Z,1.70
2019-05-11T04:04:21.368Z,2.23
2019-05-11T04:09:26.370Z,1.73
2019-05-11T04:12:35.927Z,1.70
2019-05-11T04:18:03.084Z,1.77
2019-05-11T04:23:33.470Z,1.50
2019-05-11T04:29:17.354Z,1.60
2019-05-11T04:31:47.224Z,1.33
2019-05-11T04:34:16.596Z,1.43
2019-05-11T04:39:34.823Z,1.60
2019-05-11T04:42:04.593Z,1.30
2019-05-11T04:44:35.185Z,1.40
2019-05-11T04:47:04.890Z,1.40
2019-05-11T04:49:35.453Z,1.30
2019-05-11T04:52:05.925Z,1.60
2019-05-11T04:54:36.023Z,1.20
2019-05-11T04:57:06.162Z,1.30
2019-05-11T04:59:35.602Z,1.40
2019-05-11T05:02:05.533Z,1.40
2019-05-11T05:04:35.595Z,1.37
2019-05-11T05:07:05.545Z,1.40
2019-05-11T05:09:42.987Z,1.50
2019-05-11T05:12:13.642Z,1.10
2019-05-11T05:17:41.808Z,1.13
2019-05-11T05:23:15.641Z,1.50
2019-05-11T05:26:24.275Z,1.60
2019-05-11T05:31:49.478Z,1.27
2019-05-11T05:34:58.253Z,1.57
2019-05-11T05:38:07.721Z,1.20
2019-05-11T05:40:37.519Z,1.27
2019-05-11T05:46:03.287Z,1.50
2019-05-11T05:48:32.695Z,1.40
2019-05-11T05:51:02.461Z,1.20
2019-05-11T05:53:32.339Z,1.47
2019-05-11T05:56:01.988Z,1.67
2019-05-11T06:01:23.650Z,1.53
2019-05-11T06:04:12.294Z,1.20
2019-05-11T06:06:42.325Z,1.30
2019-05-11T06:09:11.786Z,1.30
2019-05-11T06:11:41.143Z,1.33
2019-05-11T06:14:10.571Z,1.20
2019-05-11T06:16:40.006Z,1.40
2019-05-11T06:19:10.218Z,1.27
2019-05-11T06:21:39.903Z,1.40
2019-05-11T06:24:10.279Z,1.20
2019-05-11T06:29:37.132Z,1.20
2019-05-11T06:38:11.048Z,1.27
2019-05-11T06:40:40.455Z,1.23
2019-05-11T06:43:09.836Z,1.50
2019-05-11T06:45:51.034Z,1.43
2019-05-11T06:48:21.055Z,1.53
2019-05-11T06:51:30.106Z,1.50
2019-05-11T06:56:55.816Z,1.50
2019-05-11T06:59:25.346Z,1.40
2019-05-11T07:01:55.188Z,1.50
2019-05-11T07:04:24.970Z,1.30
2019-05-11T07:06:54.395Z,1.20
2019-05-11T07:09:23.920Z,1.40
2019-05-11T07:11:53.535Z,1.30
2019-05-11T07:14:23.138Z,1.37
2019-05-11T07:19:51.648Z,1.60
2019-05-11T07:22:21.102Z,1.47
2019-05-11T07:27:46.695Z,1.40
2019-05-11T07:30:17.664Z,1.40
2019-05-11T07:32:48.158Z,1.80
2019-05-11T07:35:18.778Z,1.77
2019-05-11T07:37:48.560Z,1.53
2019-05-11T07:40:19.881Z,1.50
2019-05-11T07:42:49.418Z,1.40
2019-05-11T07:48:28.395Z,1.37
2019-05-11T07:50:59.622Z,1.57
2019-05-11T07:53:29.456Z,1.60
2019-05-11T07:58:34.433Z,1.30
2019-05-11T08:03:43.310Z,1.60
2019-05-11T08:08:54.754Z,1.30
2019-05-11T08:11:28.090Z,1.10
2019-05-11T08:17:22.251Z,1.30
2019-05-11T08:19:51.738Z,1.30
2019-05-11T08:23:00.903Z,1.40
2019-05-11T08:28:28.617Z,1.60
2019-05-11T08:30:58.047Z,1.23
2019-05-11T08:33:28.405Z,1.80
2019-05-11T08:35:58.444Z,1.30
2019-05-11T08:38:30.858Z,1.40
2019-05-11T08:41:00.361Z,1.30
2019-05-11T08:43:29.761Z,1.60
2019-05-11T08:45:59.435Z,1.90
2019-05-11T08:48:28.868Z,1.50
2019-05-11T08:50:58.411Z,1.13
2019-05-11T08:53:28.503Z,1.23
2019-05-11T08:58:39.671Z,1.40
2019-05-11T09:01:09.133Z,1.40
2019-05-11T09:03:58.476Z,1.40
2019-05-11T09:06:28.510Z,1.23
2019-05-11T09:08:58.430Z,1.20
2019-05-11T09:11:28.524Z,1.20
2019-05-11T09:13:58.320Z,1.17
2019-05-11T09:19:42.711Z,1.47
2019-05-11T09:22:12.184Z,1.47
2019-05-11T09:24:41.689Z,1.70
2019-05-11T09:27:11.097Z,1.20
2019-05-11T09:29:40.703Z,1.90
2019-05-11T09:32:10.107Z,1.13
2019-05-11T09:34:39.654Z,1.40
2019-05-11T09:37:09.418Z,1.10
2019-05-11T09:39:38.867Z,1.10
2019-05-11T09:44:44.088Z,1.20
2019-05-11T09:47:13.669Z,1.27
2019-05-11T09:52:45.281Z,1.30
2019-05-11T09:55:54.136Z,1.53
2019-05-11T09:58:35.881Z,1.63
2019-05-11T10:04:09.006Z,1.20
2019-05-11T10:09:29.605Z,1.90
2019-05-11T10:11:59.225Z,1.73
2019-05-11T10:14:29.000Z,1.80
2019-05-11T10:19:54.968Z,2.30
2019-05-11T10:25:51.107Z,1.27
2019-05-11T10:31:22.261Z,1.50
2019-05-11T10:33:51.877Z,1.83
2019-05-11T10:36:21.493Z,1.77
2019-05-11T10:41:47.963Z,1.53
2019-05-11T10:44:18.927Z,1.07
2019-05-11T10:46:49.986Z,0.80
2019-05-11T10:49:20.313Z,1.00
2019-05-11T10:51:49.881Z,2.17
2019-05-11T10:54:19.756Z,0.90
2019-05-11T10:56:49.212Z,1.00
2019-05-11T10:59:19.173Z,1.10
2019-05-11T11:05:03.135Z,1.70
2019-05-11T11:07:32.581Z,1.00
2019-05-11T11:10:01.975Z,1.17
2019-05-11T11:12:31.508Z,0.90
2019-05-11T11:15:01.345Z,3.30
2019-05-11T11:17:30.852Z,2.10
2019-05-11T11:20:21.506Z,1.70
2019-05-11T11:22:51.316Z,1.47
2019-05-11T11:25:20.953Z,0.97
2019-05-11T11:28:29.704Z,0.90
2019-05-11T11:30:59.393Z,1.70
2019-05-11T11:33:28.990Z,1.53
2019-05-11T11:35:58.877Z,3.53
2019-05-11T11:38:29.174Z,3.57
2019-05-11T11:41:38.090Z,1.30
2019-05-11T11:44:28.525Z,1.10
2019-05-11T11:53:18.605Z,1.03
2019-05-11T11:55:48.186Z,1.20
2019-05-11T11:58:23.753Z,0.90
2019-05-11T12:00:51.858Z,1.10
2019-05-11T12:03:21.230Z,1.20
2019-05-11T12:05:50.664Z,1.00
2019-05-11T12:08:20.035Z,1.27
2019-05-11T12:10:49.989Z,0.97
2019-05-11T12:13:19.577Z,1.17
2019-05-11T12:15:48.969Z,0.90
2019-05-11T12:18:18.599Z,1.33
2019-05-11T12:20:48.178Z,1.13
2019-05-11T12:26:28.187Z,1.30
2019-05-11T12:28:59.088Z,1.23
2019-05-11T12:32:08.255Z,3.07
2019-05-11T12:34:38.987Z,1.40
2019-05-11T12:37:08.571Z,1.17
2019-05-11T12:39:40.001Z,1.27
2019-05-11T12:47:59.698Z,1.80
2019-05-11T12:50:29.931Z,2.00
2019-05-11T13:02:12.004Z,2.50
2019-05-11T13:07:39.178Z,2.40
2019-05-11T13:10:08.732Z,2.03
2019-05-11T13:12:38.733Z,2.87
2019-05-11T13:15:28.171Z,3.10
2019-05-11T13:21:00.254Z,1.70
2019-05-11T13:24:09.093Z,1.40
2019-05-11T13:26:38.676Z,1.30
2019-05-11T13:29:28.631Z,1.70
2019-05-11T13:31:59.695Z,1.83
2019-05-11T13:34:31.539Z,1.63
2019-05-11T13:37:39.995Z,1.93
2019-05-11T13:46:08.776Z,1.87
2019-05-11T13:51:40.932Z,1.50
2019-05-11T13:54:10.868Z,1.80
2019-05-11T13:56:40.315Z,1.40
2019-05-11T14:02:11.264Z,1.70
2019-05-11T14:07:37.954Z,1.57
2019-05-11T14:13:30.911Z,1.93
2019-05-11T14:18:40.114Z,1.30
2019-05-11T14:21:09.508Z,1.60
2019-05-11T14:23:39.012Z,1.60
2019-05-11T14:26:08.843Z,2.00
2019-05-11T14:28:38.989Z,1.43
2019-05-11T14:31:08.521Z,1.73
2019-05-11T14:33:38.694Z,1.70
2019-05-11T14:36:08.764Z,1.43
2019-05-11T14:38:38.323Z,1.57
2019-05-11T14:41:08.547Z,1.63
2019-05-11T14:43:38.480Z,1.60
2019-05-11T14:46:08.659Z,1.73
2019-05-11T14:48:39.184Z,1.90
2019-05-11T14:51:10.112Z,2.40
2019-05-11T14:53:39.601Z,1.93
2019-05-11T14:56:09.339Z,1.53
2019-05-11T15:01:53.741Z,1.63
2019-05-11T15:04:23.089Z,1.40
2019-05-11T15:06:52.575Z,1.10
2019-05-11T15:09:22.521Z,1.33
2019-05-11T15:11:52.657Z,1.40
2019-05-11T15:14:22.355Z,1.60
2019-05-11T15:16:51.753Z,1.60
2019-05-11T15:19:21.207Z,1.70
2019-05-11T15:21:50.839Z,1.60
2019-05-11T15:24:20.428Z,1.50
2019-05-11T15:26:49.839Z,1.57
2019-05-11T15:29:19.337Z,1.70
2019-05-11T15:31:48.729Z,1.50
2019-05-11T15:34:18.688Z,1.70
2019-05-11T15:37:08.399Z,1.40
2019-05-11T15:45:42.236Z,1.60
2019-05-11T15:48:11.678Z,1.30
2019-05-11T15:51:21.213Z,1.30
2019-05-11T15:53:50.666Z,1.93
2019-05-11T15:56:20.241Z,1.60
2019-05-11T15:58:49.719Z,1.67
2019-05-11T16:01:19.181Z,2.13
2019-05-11T16:03:50.141Z,1.63
2019-05-11T16:09:45.357Z,2.00
2019-05-11T16:18:50.748Z,2.00
2019-05-11T16:24:22.670Z,2.70
2019-05-11T16:27:31.336Z,2.37
2019-05-11T16:30:00.751Z,2.50
2019-05-11T16:32:30.260Z,3.43
2019-05-11T16:35:00.451Z,4.17
2019-05-11T16:40:25.837Z,5.03
2019-05-11T16:46:04.844Z,4.90
2019-05-11T16:48:34.572Z,5.10
2019-05-11T16:51:04.175Z,4.60
2019-05-11T16:56:09.304Z,4.40
2019-05-11T16:58:41.146Z,4.33
2019-05-11T17:01:10.099Z,4.17
2019-05-11T17:03:39.724Z,4.80
2019-05-11T17:06:09.173Z,5.00
2019-05-11T17:08:38.657Z,5.17
2019-05-11T17:11:08.429Z,4.77
2019-05-11T17:13:39.514Z,5.10
2019-05-11T17:16:09.071Z,5.03
2019-05-11T17:18:38.422Z,5.50
2019-05-11T17:21:08.040Z,5.77
2019-05-11T17:23:38.399Z,6.53
2019-05-11T17:26:08.895Z,6.50
2019-05-11T17:29:18.555Z,6.70
2019-05-11T17:31:49.318Z,6.77
2019-05-11T17:34:59.099Z,6.97
2019-05-11T17:40:42.868Z,7.20
2019-05-11T17:43:51.655Z,6.77
2019-05-11T17:46:21.403Z,6.57
2019-05-11T17:48:51.182Z,5.70
2019-05-11T17:51:24.698Z,5.80
2019-05-11T17:53:52.781Z,6.53
2019-05-11T17:56:22.526Z,5.50
2019-05-11T17:58:52.064Z,6.00
2019-05-11T18:01:21.670Z,6.40
2019-05-11T18:07:06.076Z,6.43
2019-05-11T18:09:37.927Z,5.30
2019-05-11T18:12:06.901Z,5.57
2019-05-11T18:14:39.358Z,5.57
2019-05-11T18:17:29.459Z,5.70
2019-05-11T18:23:08.362Z,5.43
2019-05-11T18:25:39.469Z,5.10
2019-05-11T18:28:09.259Z,5.97
2019-05-11T18:30:39.061Z,6.43
2019-05-11T18:33:10.104Z,5.70
2019-05-11T18:35:39.755Z,5.40
2019-05-11T18:38:09.278Z,4.90
2019-05-11T18:40:38.630Z,4.93
2019-05-11T18:43:08.691Z,5.37
2019-05-11T18:45:38.549Z,5.03
2019-05-11T18:48:08.278Z,5.17
2019-05-11T18:53:48.226Z,4.33
2019-05-11T18:56:18.177Z,5.20
2019-05-11T18:58:49.004Z,5.20
2019-05-11T19:01:18.800Z,4.40
2019-05-11T19:03:48.231Z,4.40
2019-05-11T19:06:18.511Z,4.60
2019-05-11T19:11:44.106Z,3.80
2019-05-11T19:14:14.202Z,4.40
2019-05-11T19:16:43.620Z,4.23
2019-05-11T19:19:13.340Z,3.43
2019-05-11T19:24:39.031Z,4.30
2019-05-11T19:27:08.635Z,3.93
2019-05-11T19:32:34.415Z,4.00
2019-05-11T19:38:52.013Z,3.87
2019-05-11T19:47:28.122Z,3.57
2019-05-11T19:52:59.992Z,3.90
2019-05-11T19:55:29.538Z,3.90
2019-05-11T19:58:39.430Z,3.40
2019-05-11T20:04:18.957Z,3.40
2019-05-11T20:07:27.905Z,3.43
2019-05-11T20:10:38.309Z,3.57
2019-05-11T20:13:08.133Z,3.60
2019-05-11T20:18:18.216Z,3.40
2019-05-11T20:24:15.114Z,3.43
2019-05-11T20:29:40.719Z,4.00
2019-05-11T20:32:49.631Z,3.70
2019-05-11T20:35:20.071Z,3.87
2019-05-11T20:37:49.859Z,3.57
2019-05-11T20:43:14.869Z,3.40
2019-05-11T20:45:44.326Z,3.97
2019-05-11T20:48:13.969Z,3.20
2019-05-11T20:50:43.464Z,3.20
2019-05-11T20:53:12.903Z,2.50
2019-05-11T20:55:42.474Z,2.73
2019-05-11T21:01:21.586Z,2.43
2019-05-11T21:04:12.138Z,3.23
2019-05-11T21:06:41.631Z,2.70
2019-05-11T21:09:50.563Z,2.73
2019-05-11T21:15:18.036Z,1.93
2019-05-11T21:17:48.213Z,2.30
2019-05-11T21:23:25.350Z,2.33
2019-05-11T21:25:54.890Z,2.10
2019-05-11T21:28:24.439Z,2.33
2019-05-11T21:39:28.756Z,1.77
2019-05-11T21:45:00.758Z,1.73
2019-05-11T21:48:09.696Z,1.83
2019-05-11T21:50:39.194Z,1.70
2019-05-11T21:53:10.601Z,1.43
2019-05-11T21:58:41.826Z,1.43
2019-05-11T22:01:11.757Z,1.50
2019-05-11T22:03:41.243Z,1.40
2019-05-11T22:12:10.890Z,1.23
2019-05-11T22:17:42.575Z,1.20
2019-05-11T22:20:51.278Z,1.43
2019-05-11T22:23:21.283Z,1.40
2019-05-11T22:25:50.835Z,1.20
2019-05-11T22:29:00.579Z,1.07
2019-05-11T22:31:30.957Z,1.20
2019-05-11T22:37:34.760Z,1.27
2019-05-11T22:43:29.160Z,0.90
2019-05-11T22:48:52.960Z,0.80
2019-05-11T22:52:01.819Z,0.67
2019-05-11T22:54:31.750Z,0.90
2019-05-11T22:57:01.093Z,0.80
2019-05-11T22:59:30.551Z,0.77
2019-05-11T23:02:11.751Z,0.87
2019-05-11T23:04:41.263Z,0.77
2019-05-11T23:07:10.781Z,0.73
2019-05-11T23:09:40.596Z,0.80
2019-05-11T23:12:10.264Z,0.80
2019-05-11T23:15:19.132Z,0.73
2019-05-11T23:17:49.698Z,0.80
2019-05-11T23:20:58.499Z,0.77
2019-05-11T23:23:28.416Z,0.87
2019-05-11T23:25:59.317Z,1.00
2019-05-11T23:29:08.303Z,0.77
2019-05-11T23:31:50.558Z,0.70
2019-05-11T23:37:03.146Z,0.93
2019-05-11T23:39:32.543Z,0.83
2019-05-11T23:42:21.340Z,1.00
2019-05-11T23:47:59.986Z,0.60
2019-05-11T23:51:08.864Z,0.80
2019-05-11T23:54:19.147Z,1.20
2019-05-11T23:56:48.653Z,1.00
2019-05-11T23:59:58.066Z,1.20
